Time;durP1;ratioP1;P1;durP2;ratioP2;P2;SDS_P1;SDS_P2;PMS_P1;PMS_P2;Temp;Humidity;BMP_temperature;BMP_pressure;BME280_temperature;BME280_humidity;BME280_pressure;Samples;Min_cycle;Max_cycle;Signal;HPM_P1;HPM_P2
2024/01/06 00:00:27;;;;;;;4.43;2.30;;;;;3.80;94725.00;;;;5052929;28;20194;-60
2024/01/06 00:02:55;;;;;;;3.50;2.70;;;;;3.70;94730.00;;;;5053086;28;20231;-61
2024/01/06 00:05:22;;;;;;;4.20;2.27;;;;;3.80;94728.00;;;;5052921;28;20192;-60
2024/01/06 00:07:50;;;;;;;2.93;2.67;;;;;3.60;94727.00;;;;5053077;28;20208;-60
2024/01/06 00:10:18;;;;;;;1.20;1.20;;;;;3.50;94730.00;;;;5052962;28;20184;-60
2024/01/06 00:12:48;;;;;;;1.80;1.60;;;;;3.60;94740.00;;;;5053227;28;20216;-60
2024/01/06 00:15:16;;;;;;;2.03;1.93;;;;;3.60;94735.00;;;;5053078;28;20184;-60
2024/01/06 00:17:43;;;;;;;1.70;1.60;;;;;3.60;94730.00;;;;5053025;28;20279;-60
2024/01/06 00:20:13;;;;;;;1.63;1.53;;;;;3.60;94735.00;;;;5052835;28;20227;-60
2024/01/06 00:22:41;;;;;;;1.27;1.20;;;;;3.60;94730.00;;;;5052511;28;20220;-60
2024/01/06 00:25:09;;;;;;;1.37;1.30;;;;;3.60;94728.00;;;;5052678;28;20192;-60
2024/01/06 00:27:36;;;;;;;2.50;1.83;;;;;3.70;94728.00;;;;5053181;28;20201;-61
2024/01/06 00:30:06;;;;;;;1.10;1.10;;;;;3.70;94730.00;;;;5052688;28;20192;-60
2024/01/06 00:32:33;;;;;;;2.63;1.40;;;;;3.70;94729.00;;;;5052394;28;20223;-60
2024/01/06 00:35:01;;;;;;;1.40;1.40;;;;;3.70;94726.00;;;;5051294;28;20202;-60
2024/01/06 00:37:28;;;;;;;1.53;1.43;;;;;3.70;94735.00;;;;5052551;28;20188;-61
2024/01/06 00:39:56;;;;;;;0.93;0.93;;;;;3.70;94741.00;;;;5052611;28;20220;-61
2024/01/06 00:42:23;;;;;;;1.53;1.43;;;;;3.70;94736.00;;;;5056135;28;20221;-60
2024/01/06 00:44:50;;;;;;;1.67;1.57;;;;;3.70;94745.00;;;;5056696;28;20218;-60
2024/01/06 00:47:22;;;;;;;4.43;1.63;;;;;3.70;94747.00;;;;5056450;28;20544;-60
2024/01/06 00:49:49;;;;;;;2.10;1.87;;;;;3.70;94749.00;;;;5056283;28;20193;-60
2024/01/06 00:52:16;;;;;;;1.67;1.57;;;;;3.70;94755.00;;;;5056563;28;20215;-60
2024/01/06 00:54:44;;;;;;;1.40;1.30;;;;;3.70;94760.00;;;;5056416;28;20199;-60
2024/01/06 00:57:11;;;;;;;2.67;2.33;;;;;3.60;94758.00;;;;5056195;28;20192;-60
2024/01/06 00:59:39;;;;;;;3.53;2.73;;;;;3.60;94766.00;;;;5056050;28;20279;-60
2024/01/06 01:02:07;;;;;;;1.87;1.77;;;;;3.60;94769.00;;;;5055838;28;20693;-60
2024/01/06 01:04:34;;;;;;;1.00;0.90;;;;;3.60;94779.00;;;;5055954;28;20289;-61
2024/01/06 01:07:02;;;;;;;2.73;1.90;;;;;3.60;94785.00;;;;5055858;28;20536;-61
2024/01/06 01:09:29;;;;;;;2.97;2.10;;;;;3.60;94780.00;;;;5055798;28;20196;-61
2024/01/06 01:11:56;;;;;;;2.27;2.13;;;;;3.70;94787.00;;;;5054730;28;20598;-61
2024/01/06 01:14:24;;;;;;;2.40;2.23;;;;;3.60;94781.00;;;;5055650;28;20215;-60
2024/01/06 01:16:52;;;;;;;1.90;1.80;;;;;3.70;94773.00;;;;5056221;28;20199;-60
2024/01/06 01:19:19;;;;;;;1.53;1.43;;;;;3.60;94776.00;;;;5055585;28;20230;-61
2024/01/06 01:21:47;;;;;;;4.23;3.67;;;;;3.60;94772.00;;;;5055542;28;20223;-61
2024/01/06 01:24:15;;;;;;;2.00;1.90;;;;;3.70;94767.00;;;;5055536;28;20627;-61
2024/01/06 01:26:42;;;;;;;1.77;1.67;;;;;3.70;94786.00;;;;5055524;28;20196;-61
2024/01/06 01:29:10;;;;;;;2.23;2.03;;;;;3.60;94797.00;;;;5055787;28;20199;-61
2024/01/06 01:31:37;;;;;;;2.73;2.47;;;;;3.70;94779.00;;;;5055096;28;20204;-61
2024/01/06 01:34:04;;;;;;;2.63;2.43;;;;;3.70;94789.00;;;;5055508;28;20769;-61
2024/01/06 01:36:32;;;;;;;1.70;1.60;;;;;3.70;94789.00;;;;5054789;28;20199;-61
2024/01/06 01:39:00;;;;;;;1.30;1.30;;;;;3.50;94799.00;;;;5054939;28;20199;-60
2024/01/06 01:41:28;;;;;;;2.87;2.63;;;;;3.60;94793.00;;;;5055141;28;20211;-60
2024/01/06 01:43:58;;;;;;;2.27;2.13;;;;;3.60;94798.00;;;;5055537;28;20184;-60
2024/01/06 01:46:26;;;;;;;2.00;1.90;;;;;3.60;94801.00;;;;5055097;28;20199;-60
2024/01/06 01:48:54;;;;;;;2.40;1.60;;;;;3.60;94815.00;;;;5055080;28;20246;-61
2024/01/06 01:51:22;;;;;;;1.73;1.60;;;;;3.50;94806.00;;;;5054606;28;20196;-61
2024/01/06 01:53:50;;;;;;;2.77;2.50;;;;;3.50;94813.00;;;;5054890;28;20687;-60
2024/01/06 01:56:20;;;;;;;2.00;1.90;;;;;3.60;94814.00;;;;5054988;28;20198;-60
2024/01/06 01:58:48;;;;;;;2.47;2.27;;;;;3.60;94829.00;;;;5054867;28;20196;-61
2024/01/06 02:01:16;;;;;;;5.87;2.17;;;;;3.60;94818.00;;;;5054922;28;20193;-61
2024/01/06 02:03:44;;;;;;;1.70;1.43;;;;;3.70;94818.00;;;;5054663;28;20213;-61
2024/01/06 02:06:11;;;;;;;1.80;1.70;;;;;3.60;94823.00;;;;5053472;28;20200;-61
2024/01/06 02:08:39;;;;;;;1.13;1.13;;;;;3.70;94819.00;;;;5054794;28;20192;-61
2024/01/06 02:11:06;;;;;;;3.03;2.37;;;;;3.70;94823.00;;;;5054665;28;20203;-61
2024/01/06 02:13:38;;;;;;;1.30;1.30;;;;;3.60;94827.00;;;;5054404;28;20254;-61
2024/01/06 02:16:06;;;;;;;1.10;1.10;;;;;3.60;94842.00;;;;5054721;28;20676;-61
2024/01/06 02:18:34;;;;;;;1.20;1.20;;;;;3.50;94829.00;;;;5054794;28;20562;-61
2024/01/06 02:21:03;;;;;;;2.87;1.77;;;;;3.60;94823.00;;;;5054496;28;20555;-61
2024/01/06 02:23:35;;;;;;;2.47;1.57;;;;;3.60;94833.00;;;;5054285;28;20208;-61
2024/01/06 02:26:02;;;;;;;1.47;1.37;;;;;3.60;94836.00;;;;5054328;28;20188;-61
2024/01/06 02:28:30;;;;;;;1.43;1.33;;;;;3.60;94836.00;;;;5054312;28;20195;-61
2024/01/06 02:30:57;;;;;;;1.20;1.20;;;;;3.60;94836.00;;;;5054269;28;20198;-61
2024/01/06 02:33:24;;;;;;;1.13;1.13;;;;;3.60;94853.00;;;;5054092;28;20227;-62
2024/01/06 02:35:52;;;;;;;1.10;1.10;;;;;3.60;94852.00;;;;5054141;28;20228;-61
2024/01/06 02:38:19;;;;;;;1.43;1.37;;;;;3.60;94845.00;;;;5054179;28;20200;-61
2024/01/06 02:40:48;;;;;;;0.80;0.80;;;;;3.60;94848.00;;;;5054044;28;20208;-61
2024/01/06 02:43:15;;;;;;;0.80;0.80;;;;;3.60;94850.00;;;;5054186;28;20208;-61
2024/01/06 02:45:43;;;;;;;1.53;1.33;;;;;3.60;94844.00;;;;5054296;28;20193;-61
2024/01/06 02:48:10;;;;;;;0.80;0.80;;;;;3.60;94853.00;;;;5054331;28;20226;-61
2024/01/06 02:50:37;;;;;;;0.97;0.97;;;;;3.60;94842.00;;;;5054119;28;20374;-61
2024/01/06 02:53:05;;;;;;;1.00;1.00;;;;;3.60;94849.00;;;;5053702;28;20587;-61
2024/01/06 02:55:32;;;;;;;0.60;0.60;;;;;3.60;94834.00;;;;5053816;28;20200;-61
2024/01/06 02:58:01;;;;;;;0.60;0.60;;;;;3.50;94845.00;;;;5053725;28;20188;-61
2024/01/06 03:00:28;;;;;;;0.60;0.60;;;;;3.50;94855.00;;;;5053950;28;20201;-61
2024/01/06 03:02:55;;;;;;;0.70;0.70;;;;;3.40;94849.00;;;;5052919;28;20233;-61
2024/01/06 03:05:23;;;;;;;0.80;0.80;;;;;3.40;94851.00;;;;5054230;28;20562;-61
2024/01/06 03:07:50;;;;;;;0.70;0.70;;;;;3.50;94849.00;;;;5053604;28;20215;-61
2024/01/06 03:10:18;;;;;;;1.03;1.03;;;;;3.50;94846.00;;;;5053486;28;20238;-61
2024/01/06 03:12:45;;;;;;;0.80;0.80;;;;;3.50;94845.00;;;;5054053;28;20669;-61
2024/01/06 03:15:14;;;;;;;0.80;0.80;;;;;3.40;94838.00;;;;5053488;28;20572;-60
2024/01/06 03:17:41;;;;;;;0.90;0.90;;;;;3.40;94841.00;;;;5052102;28;20205;-60
2024/01/06 03:20:09;;;;;;;0.80;0.80;;;;;3.40;94829.00;;;;5055158;28;20686;-60
2024/01/06 03:22:38;;;;;;;0.77;0.77;;;;;3.30;94832.00;;;;5055677;28;20220;-61
2024/01/06 03:25:06;;;;;;;0.83;0.83;;;;;3.30;94837.00;;;;5054161;28;20195;-61
2024/01/06 03:27:33;;;;;;;1.57;1.47;;;;;3.30;94840.00;;;;5053419;28;20290;-62
2024/01/06 03:30:01;;;;;;;1.87;1.37;;;;;3.30;94844.00;;;;5053194;28;20195;-61
2024/01/06 03:32:29;;;;;;;0.80;0.80;;;;;3.30;94833.00;;;;5053147;28;20212;-62
2024/01/06 03:34:58;;;;;;;0.77;0.77;;;;;3.30;94845.00;;;;5053341;28;20216;-61
2024/01/06 03:37:26;;;;;;;1.00;1.00;;;;;3.30;94837.00;;;;5053523;28;20195;-60
2024/01/06 03:39:53;;;;;;;1.60;0.97;;;;;3.50;94842.00;;;;5053691;28;20196;-60
2024/01/06 03:42:20;;;;;;;0.60;0.60;;;;;3.50;94839.00;;;;5053760;28;20623;-60
2024/01/06 03:44:48;;;;;;;1.00;1.00;;;;;3.50;94829.00;;;;5053560;28;20192;-60
2024/01/06 03:47:15;;;;;;;0.60;0.60;;;;;3.50;94830.00;;;;5051721;28;20203;-60
2024/01/06 03:49:44;;;;;;;0.60;0.60;;;;;3.50;94833.00;;;;5053255;28;20189;-61
2024/01/06 03:52:11;;;;;;;0.80;0.80;;;;;3.40;94829.00;;;;5053012;28;20223;-61
2024/01/06 03:54:39;;;;;;;0.80;0.80;;;;;3.50;94837.00;;;;5053034;28;20223;-60
2024/01/06 03:57:06;;;;;;;0.90;0.90;;;;;3.50;94835.00;;;;5053014;28;20196;-60
2024/01/06 03:59:33;;;;;;;1.37;1.00;;;;;3.50;94832.00;;;;5052935;28;20188;-61
2024/01/06 04:02:01;;;;;;;0.83;0.83;;;;;3.50;94836.00;;;;5052804;28;20216;-61
2024/01/06 04:04:28;;;;;;;0.70;0.70;;;;;3.60;94839.00;;;;5052789;28;20192;-61
2024/01/06 04:07:01;;;;;;;0.80;0.80;;;;;3.50;94837.00;;;;5052810;28;20200;-59
2024/01/06 04:09:28;;;;;;;0.70;0.70;;;;;3.50;94839.00;;;;5053145;28;20192;-60
2024/01/06 04:11:56;;;;;;;0.90;0.90;;;;;3.50;94833.00;;;;5051736;28;20216;-60
2024/01/06 04:14:23;;;;;;;0.83;0.83;;;;;3.50;94840.00;;;;5053239;28;20217;-60
2024/01/06 04:16:52;;;;;;;0.77;0.77;;;;;3.40;94842.00;;;;5056780;28;20598;-60
2024/01/06 04:19:20;;;;;;;1.30;1.30;;;;;3.50;94839.00;;;;5057010;28;20262;-60
2024/01/06 04:21:48;;;;;;;1.40;1.30;;;;;3.50;94848.00;;;;5056919;28;20212;-60
2024/01/06 04:24:17;;;;;;;0.70;0.70;;;;;3.50;94838.00;;;;5056914;28;20245;-60
2024/01/06 04:26:45;;;;;;;0.67;0.67;;;;;3.60;94846.00;;;;5056543;28;20197;-60
2024/01/06 04:29:13;;;;;;;0.60;0.60;;;;;3.50;94843.00;;;;5056645;28;20655;-61
2024/01/06 04:31:41;;;;;;;0.63;0.63;;;;;3.40;94844.00;;;;5056750;28;20215;-60
2024/01/06 04:34:08;;;;;;;0.67;0.67;;;;;3.40;94843.00;;;;5056786;28;20580;-59
2024/01/06 04:36:36;;;;;;;0.70;0.70;;;;;3.70;94839.00;;;;5057158;28;20528;-61
2024/01/06 04:39:03;;;;;;;0.90;0.90;;;;;3.60;94845.00;;;;5056779;28;20188;-59
2024/01/06 04:41:32;;;;;;;0.80;0.80;;;;;3.70;94848.00;;;;5056509;28;20318;-59
2024/01/06 04:43:59;;;;;;;0.60;0.60;;;;;3.70;94846.00;;;;5057134;28;20188;-60
2024/01/06 04:46:26;;;;;;;0.70;0.70;;;;;3.70;94847.00;;;;5056466;28;20192;-61
2024/01/06 04:48:54;;;;;;;0.60;0.60;;;;;3.50;94848.00;;;;5056693;28;20196;-61
2024/01/06 04:51:21;;;;;;;0.70;0.70;;;;;3.70;94851.00;;;;5056162;28;20199;-60
2024/01/06 04:53:49;;;;;;;2.20;1.10;;;;;3.50;94847.00;;;;5056409;28;20219;-60
2024/01/06 04:56:16;;;;;;;0.80;0.80;;;;;3.50;94853.00;;;;5056052;28;20184;-60
2024/01/06 04:58:45;;;;;;;0.90;0.90;;;;;3.60;94854.00;;;;5056001;28;20204;-60
2024/01/06 05:01:12;;;;;;;0.80;0.80;;;;;3.60;94853.00;;;;5055843;28;20192;-60
2024/01/06 05:03:40;;;;;;;1.27;1.27;;;;;3.60;94849.00;;;;5055819;28;20654;-60
2024/01/06 05:06:07;;;;;;;0.60;0.60;;;;;3.80;94854.00;;;;5056020;28;20203;-61
2024/01/06 05:08:38;;;;;;;0.60;0.60;;;;;3.60;94856.00;;;;5055913;28;20200;-60
2024/01/06 05:11:07;;;;;;;0.60;0.60;;;;;3.70;94853.00;;;;5056047;28;20180;-60
2024/01/06 05:13:34;;;;;;;1.90;1.27;;;;;3.80;94860.00;;;;5055654;28;20212;-60
2024/01/06 05:16:03;;;;;;;1.30;1.20;;;;;3.60;94860.00;;;;5055678;28;20194;-62
2024/01/06 05:18:30;;;;;;;0.60;0.60;;;;;3.60;94855.00;;;;5055716;28;20659;-61
2024/01/06 05:20:58;;;;;;;0.80;0.80;;;;;3.50;94857.00;;;;5055743;28;20683;-61
2024/01/06 05:23:25;;;;;;;0.80;0.80;;;;;3.40;94853.00;;;;5055808;28;20266;-61
2024/01/06 05:25:53;;;;;;;1.30;1.20;;;;;3.50;94852.00;;;;5055093;28;20196;-60
2024/01/06 05:28:20;;;;;;;1.17;1.10;;;;;3.60;94862.00;;;;5055424;28;20227;-60
2024/01/06 05:30:48;;;;;;;24.27;0.90;;;;;3.70;94866.00;;;;5056200;28;20660;-60
2024/01/06 05:33:18;;;;;;;0.70;0.70;;;;;3.60;94860.00;;;;5057565;28;20332;-60
2024/01/06 05:35:45;;;;;;;0.60;0.60;;;;;3.60;94860.00;;;;5056509;28;20235;-60
2024/01/06 05:38:12;;;;;;;0.73;0.73;;;;;3.80;94865.00;;;;5056762;28;20203;-60
2024/01/06 05:40:40;;;;;;;0.70;0.70;;;;;3.60;94868.00;;;;5055302;28;20204;-60
2024/01/06 05:43:07;;;;;;;0.60;0.60;;;;;3.70;94870.00;;;;5055193;28;20212;-60
2024/01/06 05:45:34;;;;;;;0.60;0.60;;;;;3.70;94874.00;;;;5055652;28;20254;-61
2024/01/06 05:48:02;;;;;;;0.63;0.63;;;;;3.80;94890.00;;;;5055379;28;20271;-61
2024/01/06 05:50:32;;;;;;;1.13;1.10;;;;;3.70;94903.00;;;;5055547;28;20199;-61
2024/01/06 05:52:59;;;;;;;0.70;0.70;;;;;3.70;94899.00;;;;5055494;28;20568;-60
2024/01/06 05:55:26;;;;;;;0.70;0.70;;;;;3.70;94892.00;;;;5055595;28;20303;-61
2024/01/06 05:57:54;;;;;;;0.70;0.70;;;;;3.60;94887.00;;;;5055269;28;20188;-61
2024/01/06 06:00:21;;;;;;;0.90;0.90;;;;;3.60;94897.00;;;;5054776;28;20664;-62
2024/01/06 06:02:49;;;;;;;0.73;0.73;;;;;3.60;94905.00;;;;5054758;28;20216;-60
2024/01/06 06:05:16;;;;;;;0.90;0.90;;;;;3.60;94903.00;;;;5054829;28;20202;-60
2024/01/06 06:07:45;;;;;;;0.93;0.93;;;;;3.50;94918.00;;;;5055076;28;20188;-60
2024/01/06 06:10:13;;;;;;;0.80;0.80;;;;;3.50;94911.00;;;;5054870;28;20196;-60
2024/01/06 06:12:40;;;;;;;1.10;1.10;;;;;3.50;94922.00;;;;5054673;28;20691;-60
2024/01/06 06:15:08;;;;;;;0.80;0.80;;;;;3.60;94920.00;;;;5054551;28;20219;-60
2024/01/06 06:17:36;;;;;;;0.80;0.80;;;;;3.60;94922.00;;;;5054672;28;20230;-60
2024/01/06 06:20:06;;;;;;;1.40;1.20;;;;;3.70;94931.00;;;;5054574;28;20192;-60
2024/01/06 06:22:33;;;;;;;0.63;0.63;;;;;3.70;94932.00;;;;5054439;28;20274;-59
2024/01/06 06:25:02;;;;;;;1.03;1.03;;;;;3.70;94934.00;;;;5054802;28;20211;-59
2024/01/06 06:27:32;;;;;;;0.60;0.60;;;;;3.80;94938.00;;;;5054727;28;20227;-62
2024/01/06 06:30:00;;;;;;;0.80;0.80;;;;;3.70;94939.00;;;;5054548;28;20211;-60
2024/01/06 06:32:27;;;;;;;0.77;0.77;;;;;3.70;94950.00;;;;5054598;28;20291;-60
2024/01/06 06:34:54;;;;;;;0.80;0.80;;;;;3.70;94953.00;;;;5054444;28;20223;-60
2024/01/06 06:37:22;;;;;;;0.60;0.60;;;;;3.70;94942.00;;;;5053041;28;20287;-60
2024/01/06 06:39:49;;;;;;;0.70;0.70;;;;;3.70;94958.00;;;;5054680;28;20197;-60
2024/01/06 06:42:18;;;;;;;0.70;0.70;;;;;3.70;94957.00;;;;5054031;28;20224;-61
2024/01/06 06:44:46;;;;;;;1.13;1.10;;;;;3.70;94961.00;;;;5054422;28;20188;-60
2024/01/06 06:47:14;;;;;;;0.60;0.60;;;;;3.50;94965.00;;;;5054225;28;20558;-61
2024/01/06 06:49:41;;;;;;;0.70;0.70;;;;;3.50;94962.00;;;;5054140;28;20199;-60
2024/01/06 06:52:08;;;;;;;0.60;0.60;;;;;3.70;94969.00;;;;5054056;28;20212;-61
2024/01/06 06:54:36;;;;;;;0.70;0.70;;;;;3.80;94973.00;;;;5053890;28;20254;-61
2024/01/06 06:57:04;;;;;;;0.70;0.70;;;;;3.80;94984.00;;;;5054065;28;20204;-60
2024/01/06 06:59:32;;;;;;;1.40;1.07;;;;;3.80;94985.00;;;;5053768;28;20597;-61
2024/01/06 07:02:00;;;;;;;0.90;0.90;;;;;3.80;94980.00;;;;5053732;28;20219;-60
2024/01/06 07:04:27;;;;;;;1.27;1.17;;;;;3.90;94985.00;;;;5052304;28;20196;-61
2024/01/06 07:06:54;;;;;;;0.80;0.80;;;;;3.70;94990.00;;;;5053703;28;20227;-60
2024/01/06 07:09:24;;;;;;;0.60;0.60;;;;;3.70;94985.00;;;;5053587;28;20535;-60
2024/01/06 07:11:51;;;;;;;1.07;1.07;;;;;3.70;94988.00;;;;5053758;28;20266;-60
2024/01/06 07:14:19;;;;;;;0.80;0.80;;;;;3.60;94990.00;;;;5053450;28;20227;-60
2024/01/06 07:16:48;;;;;;;1.40;1.30;;;;;3.60;94990.00;;;;5053606;28;20205;-60
2024/01/06 07:19:15;;;;;;;0.60;0.60;;;;;3.60;94992.00;;;;5053698;28;20188;-60
2024/01/06 07:21:42;;;;;;;1.00;1.00;;;;;3.40;94988.00;;;;5053256;28;20220;-60
2024/01/06 07:24:10;;;;;;;1.33;0.70;;;;;3.70;94987.00;;;;5053499;28;20200;-61
2024/01/06 07:26:37;;;;;;;0.80;0.80;;;;;3.70;94990.00;;;;5053407;28;20527;-61
2024/01/06 07:29:04;;;;;;;2.27;1.10;;;;;3.70;94980.00;;;;5053514;28;20196;-61
2024/01/06 07:31:32;;;;;;;0.73;0.73;;;;;3.60;94982.00;;;;5053247;28;20192;-61
2024/01/06 07:34:00;;;;;;;0.70;0.70;;;;;3.40;94974.00;;;;5053312;28;20229;-61
2024/01/06 07:36:28;;;;;;;0.97;0.97;;;;;3.40;94979.00;;;;5053140;28;20216;-61
2024/01/06 07:38:55;;;;;;;0.73;0.73;;;;;3.50;94990.00;;;;5053090;28;20571;-61
2024/01/06 07:41:23;;;;;;;1.07;0.97;;;;;3.50;94989.00;;;;5052936;28;20359;-60
2024/01/06 07:43:52;;;;;;;0.83;0.83;;;;;3.50;94995.00;;;;5053300;28;20199;-60
2024/01/06 07:46:20;;;;;;;0.60;0.60;;;;;3.60;94998.00;;;;5053019;28;20188;-60
2024/01/06 07:48:47;;;;;;;4.00;3.67;;;;;3.50;94993.00;;;;5051619;28;20202;-60
2024/01/06 07:51:17;;;;;;;1.97;1.70;;;;;3.70;94990.00;;;;5052834;28;20203;-60
2024/01/06 07:53:44;;;;;;;2.10;2.00;;;;;3.70;94994.00;;;;5052912;28;20212;-60
2024/01/06 07:56:11;;;;;;;1.20;1.20;;;;;3.60;94998.00;;;;5052874;28;20224;-60
2024/01/06 07:58:39;;;;;;;2.80;0.97;;;;;3.60;95005.00;;;;5051615;28;20203;-60
2024/01/06 08:01:06;;;;;;;0.70;0.70;;;;;3.60;95001.00;;;;5052795;28;20192;-60
2024/01/06 08:03:33;;;;;;;0.70;0.70;;;;;3.70;95002.00;;;;5052773;28;20219;-60
2024/01/06 08:06:01;;;;;;;0.70;0.70;;;;;3.70;94999.00;;;;5052987;28;20192;-61
2024/01/06 08:08:30;;;;;;;1.07;1.07;;;;;3.80;95005.00;;;;5052884;28;20196;-60
2024/01/06 08:10:57;;;;;;;0.97;0.97;;;;;3.80;95004.00;;;;5053039;28;20196;-61
2024/01/06 08:13:24;;;;;;;0.90;0.90;;;;;3.80;94996.00;;;;5052677;28;20227;-61
2024/01/06 08:15:52;;;;;;;0.60;0.60;;;;;3.70;95007.00;;;;5052468;28;20239;-61
2024/01/06 08:18:21;;;;;;;0.60;0.60;;;;;3.80;95011.00;;;;5052862;28;20664;-61
2024/01/06 08:20:48;;;;;;;0.67;0.67;;;;;3.90;95010.00;;;;5052565;28;20678;-60
2024/01/06 08:23:16;;;;;;;0.80;0.80;;;;;3.90;95013.00;;;;5052619;28;20216;-60
2024/01/06 08:25:45;;;;;;;0.80;0.80;;;;;3.80;95016.00;;;;5053240;28;20188;-60
2024/01/06 08:28:14;;;;;;;0.70;0.70;;;;;3.80;95020.00;;;;5052791;28;20188;-61
2024/01/06 08:30:42;;;;;;;0.70;0.70;;;;;3.90;95017.00;;;;5052593;28;20209;-61
2024/01/06 08:33:10;;;;;;;0.60;0.60;;;;;3.90;95020.00;;;;5052510;28;20212;-61
2024/01/06 08:35:40;;;;;;;0.90;0.90;;;;;3.90;95020.00;;;;5052458;28;20255;-61
2024/01/06 08:38:07;;;;;;;7.50;1.00;;;;;4.10;95025.00;;;;5053205;28;20268;-61
2024/01/06 08:40:35;;;;;;;0.60;0.60;;;;;4.10;95034.00;;;;5052781;28;20211;-61
2024/01/06 08:43:04;;;;;;;1.17;1.07;;;;;4.10;95029.00;;;;5051133;28;20220;-61
2024/01/06 08:45:31;;;;;;;0.60;0.60;;;;;4.00;95027.00;;;;5052326;28;20195;-61
2024/01/06 08:47:58;;;;;;;0.93;0.93;;;;;3.90;95035.00;;;;5052416;28;20199;-61
2024/01/06 08:50:26;;;;;;;0.97;0.97;;;;;4.00;95037.00;;;;5052405;28;20196;-61
2024/01/06 08:52:54;;;;;;;0.60;0.60;;;;;4.30;95039.00;;;;5052246;28;20223;-61
2024/01/06 08:55:21;;;;;;;0.97;0.97;;;;;4.10;95027.00;;;;5052324;28;20230;-61
2024/01/06 08:57:49;;;;;;;0.80;0.80;;;;;4.00;95032.00;;;;5052275;28;20203;-61
2024/01/06 09:00:18;;;;;;;0.80;0.80;;;;;4.30;95031.00;;;;5052153;28;20544;-61
2024/01/06 09:02:46;;;;;;;0.70;0.70;;;;;4.30;95041.00;;;;5054880;28;20225;-61
2024/01/06 09:05:13;;;;;;;0.60;0.60;;;;;4.30;95039.00;;;;5055971;28;20613;-61
2024/01/06 09:07:41;;;;;;;0.60;0.60;;;;;4.20;95029.00;;;;5055778;28;20660;-61
2024/01/06 09:10:09;;;;;;;0.60;0.60;;;;;4.30;95039.00;;;;5056138;28;20215;-61
2024/01/06 09:12:37;;;;;;;0.60;0.60;;;;;4.50;95042.00;;;;5055958;28;20220;-64
2024/01/06 09:15:05;;;;;;;0.60;0.60;;;;;4.40;95039.00;;;;5055640;28;20215;-61
2024/01/06 09:17:34;;;;;;;0.70;0.70;;;;;4.60;95046.00;;;;5055959;28;20735;-61
2024/01/06 09:20:02;;;;;;;0.60;0.60;;;;;4.60;95044.00;;;;5055897;28;20956;-61
2024/01/06 09:22:29;;;;;;;0.70;0.70;;;;;4.60;95045.00;;;;5055807;28;20262;-62
2024/01/06 09:24:57;;;;;;;0.70;0.70;;;;;4.50;95047.00;;;;5056097;28;20660;-61
2024/01/06 09:27:24;;;;;;;0.67;0.67;;;;;4.30;95048.00;;;;5055817;28;20192;-61
2024/01/06 09:29:52;;;;;;;0.70;0.70;;;;;4.50;95051.00;;;;5055869;28;20692;-61
2024/01/06 09:32:19;;;;;;;0.70;0.70;;;;;4.40;95056.00;;;;5056359;28;20216;-60
2024/01/06 09:34:48;;;;;;;0.60;0.60;;;;;4.50;95054.00;;;;5055805;28;20212;-60
2024/01/06 09:37:15;;;;;;;1.27;1.17;;;;;4.50;95050.00;;;;5055593;28;20189;-60
2024/01/06 09:39:43;;;;;;;0.60;0.60;;;;;4.40;95056.00;;;;5055779;28;20188;-61
2024/01/06 09:42:11;;;;;;;0.60;0.60;;;;;4.40;95072.00;;;;5055365;28;20244;-61
2024/01/06 09:44:38;;;;;;;0.70;0.70;;;;;4.20;95068.00;;;;5055455;28;20196;-61
2024/01/06 09:47:12;;;;;;;0.80;0.80;;;;;4.20;95085.00;;;;5055362;28;20311;-61
2024/01/06 09:49:40;;;;;;;0.60;0.60;;;;;4.20;95078.00;;;;5055071;28;20188;-61
2024/01/06 09:52:15;;;;;;;0.80;0.80;;;;;4.30;95076.00;;;;5055039;28;20215;-61
2024/01/06 09:54:48;;;;;;;0.60;0.60;;;;;4.30;95078.00;;;;5055183;28;20180;-61
2024/01/06 09:57:15;;;;;;;0.80;0.80;;;;;4.20;95074.00;;;;5055298;28;20180;-61
2024/01/06 09:59:46;;;;;;;0.63;0.63;;;;;4.50;95070.00;;;;5055040;28;20579;-60
2024/01/06 10:02:16;;;;;;;0.50;0.50;;;;;4.50;95072.00;;;;5055413;28;20752;-60
2024/01/06 10:04:44;;;;;;;0.60;0.60;;;;;4.60;95073.00;;;;5055433;28;20596;-60
2024/01/06 10:07:13;;;;;;;0.77;0.77;;;;;4.60;95071.00;;;;5055059;28;20197;-61
2024/01/06 10:09:42;;;;;;;0.60;0.60;;;;;4.40;95066.00;;;;5054931;28;20220;-60
2024/01/06 10:12:10;;;;;;;0.60;0.60;;;;;4.50;95072.00;;;;5054295;28;20223;-60
2024/01/06 10:14:38;;;;;;;0.60;0.60;;;;;4.50;95071.00;;;;5055044;28;20188;-62
2024/01/06 10:17:08;;;;;;;0.50;0.50;;;;;4.60;95076.00;;;;5054671;28;20569;-62
2024/01/06 10:19:38;;;;;;;0.77;0.77;;;;;4.60;95075.00;;;;5054532;28;20212;-61
2024/01/06 10:22:06;;;;;;;0.60;0.60;;;;;4.60;95073.00;;;;5054413;28;20551;-61
2024/01/06 10:24:38;;;;;;;0.60;0.60;;;;;4.70;95080.00;;;;5054579;28;20188;-61
2024/01/06 10:27:06;;;;;;;0.60;0.60;;;;;4.40;95078.00;;;;5054562;28;20195;-60
2024/01/06 10:29:33;;;;;;;0.70;0.70;;;;;4.50;95089.00;;;;5054751;28;20203;-61
2024/01/06 10:32:01;;;;;;;0.70;0.70;;;;;4.80;95085.00;;;;5054183;28;20211;-61
2024/01/06 10:34:29;;;;;;;0.60;0.60;;;;;4.60;95083.00;;;;5054401;28;20200;-61
2024/01/06 10:36:57;;;;;;;0.80;0.80;;;;;4.60;95083.00;;;;5054174;28;20227;-61
2024/01/06 10:39:25;;;;;;;0.60;0.60;;;;;4.50;95084.00;;;;5054311;28;20279;-61
2024/01/06 10:41:54;;;;;;;0.60;0.60;;;;;4.60;95077.00;;;;5054027;28;20243;-62
2024/01/06 10:44:23;;;;;;;0.50;0.50;;;;;4.90;95091.00;;;;5054202;28;20201;-61
2024/01/06 10:46:52;;;;;;;0.90;0.90;;;;;4.70;95078.00;;;;5053977;28;20192;-61
2024/01/06 10:49:23;;;;;;;0.73;0.73;;;;;4.80;95087.00;;;;5054035;28;20219;-62
2024/01/06 10:51:52;;;;;;;0.60;0.60;;;;;4.90;95088.00;;;;5054141;28;20624;-61
2024/01/06 10:54:20;;;;;;;0.90;0.90;;;;;5.10;95085.00;;;;5054454;28;20196;-60
2024/01/06 10:56:48;;;;;;;0.50;0.50;;;;;5.00;95088.00;;;;5052598;28;20228;-61
2024/01/06 10:59:16;;;;;;;0.70;0.70;;;;;4.80;95075.00;;;;5053926;28;20216;-61
2024/01/06 11:01:46;;;;;;;0.50;0.50;;;;;4.80;95075.00;;;;5054138;28;20223;-61
2024/01/06 11:04:13;;;;;;;0.60;0.60;;;;;4.80;95077.00;;;;5053176;28;20204;-61
2024/01/06 11:06:41;;;;;;;1.10;1.00;;;;;4.80;95087.00;;;;5053730;28;20188;-61
2024/01/06 11:09:15;;;;;;;0.77;0.77;;;;;4.90;95078.00;;;;5053834;28;20203;-61
2024/01/06 11:11:43;;;;;;;1.83;0.90;;;;;4.80;95077.00;;;;5052417;28;20228;-62
2024/01/06 11:14:23;;;;;;;0.70;0.70;;;;;5.10;95079.00;;;;5053948;28;20660;-61
2024/01/06 11:16:50;;;;;;;0.60;0.60;;;;;5.20;95083.00;;;;5054213;28;20288;-62
2024/01/06 11:19:44;;;;;;;0.70;0.70;;;;;5.40;95080.00;;;;5053665;28;20190;-61
2024/01/06 11:22:22;;;;;;;0.70;0.70;;;;;5.40;95076.00;;;;5053754;28;20617;-61
2024/01/06 11:24:51;;;;;;;0.80;0.80;;;;;5.50;95081.00;;;;5053031;28;20190;-62
2024/01/06 11:27:23;;;;;;;0.60;0.60;;;;;5.60;95077.00;;;;5054069;28;20593;-61
2024/01/06 11:29:54;;;;;;;0.60;0.60;;;;;5.50;95084.00;;;;5053588;28;20192;-61
2024/01/06 11:32:27;;;;;;;0.60;0.60;;;;;5.50;95072.00;;;;5053698;28;20276;-61
2024/01/06 11:34:56;;;;;;;0.90;0.90;;;;;5.60;95064.00;;;;5053360;28;20248;-61
2024/01/06 11:37:37;;;;;;;0.60;0.60;;;;;5.60;95065.00;;;;5053453;28;20219;-61
2024/01/06 11:40:09;;;;;;;0.50;0.50;;;;;5.40;95059.00;;;;5053687;28;20210;-61
2024/01/06 11:42:36;;;;;;;0.57;0.57;;;;;5.60;95062.00;;;;5053103;28;20219;-61
2024/01/06 11:45:07;;;;;;;0.87;0.87;;;;;5.60;95061.00;;;;5053454;28;20306;-62
2024/01/06 11:47:35;;;;;;;0.60;0.60;;;;;5.40;95051.00;;;;5053161;28;20217;-61
2024/01/06 11:50:04;;;;;;;0.60;0.60;;;;;5.60;95055.00;;;;5053094;28;20196;-61
2024/01/06 11:52:32;;;;;;;0.60;0.60;;;;;5.60;95058.00;;;;5053084;28;20262;-61
2024/01/06 11:55:00;;;;;;;0.60;0.60;;;;;5.40;95049.00;;;;5053044;28;20664;-61
2024/01/06 11:57:27;;;;;;;0.70;0.70;;;;;5.30;95049.00;;;;5053316;28;20603;-61
2024/01/06 11:59:55;;;;;;;1.00;0.90;;;;;5.40;95055.00;;;;5053826;28;20200;-61
2024/01/06 12:02:23;;;;;;;0.60;0.60;;;;;5.40;95056.00;;;;5053198;28;20218;-60
2024/01/06 12:04:51;;;;;;;0.70;0.70;;;;;5.50;95041.00;;;;5053172;28;20210;-60
2024/01/06 12:07:22;;;;;;;0.70;0.70;;;;;5.40;95035.00;;;;5053351;28;20543;-62
2024/01/06 12:09:50;;;;;;;0.70;0.70;;;;;5.50;95029.00;;;;5052935;28;20194;-60
2024/01/06 12:12:18;;;;;;;0.50;0.50;;;;;5.70;95034.00;;;;5052992;28;20259;-61
2024/01/06 12:14:46;;;;;;;1.30;1.20;;;;;5.90;95036.00;;;;5053459;28;20192;-61
2024/01/06 12:17:14;;;;;;;0.60;0.60;;;;;5.90;95042.00;;;;5053131;28;20325;-61
2024/01/06 12:19:43;;;;;;;0.60;0.60;;;;;5.70;95039.00;;;;5053038;28;20202;-61
2024/01/06 12:22:14;;;;;;;0.50;0.50;;;;;5.60;95042.00;;;;5052452;28;20576;-61
2024/01/06 12:24:42;;;;;;;0.90;0.90;;;;;5.70;95039.00;;;;5053048;28;20639;-61
2024/01/06 12:27:10;;;;;;;0.70;0.70;;;;;5.80;95034.00;;;;5053014;28;20729;-62
2024/01/06 12:29:40;;;;;;;0.50;0.50;;;;;5.50;95025.00;;;;5053390;28;20292;-61